Flight Track Log - Related Links

Times and Time Zones

All times are in EDT time to prevent confusion due to time zone crossing. See the N75ZM flight status page for this flight to view local times or setup timezone preferences in your user account.

Time Position Orientation Groundspeed Altitude Reporting Facility
EDT Latitude Longitude Course Direction KTS MPH feet Rate Location/Type
Wed 12:10:00 PM 32.9734 -80.3426 295° West  Level Estimated
Wed 12:11:00 PM 32.9947 -80.3886 299° West  Level FlightAware Approximate
Wed 12:12:00 PM 33.0159 -80.4346 299° West  Level FlightAware Approximate
Wed 12:13:00 PM 33.0371 -80.4807 299° West  Level FlightAware Approximate
Wed 12:14:00 PM 33.0583 -80.5268 299° West  Level FlightAware Approximate
Wed 12:15:00 PM 33.0701 -80.5774 295° West  Level Estimated
Wed 12:16:00 PM 33.0897 -80.6245 296° West  Level FlightAware Approximate
Wed 12:17:00 PM 33.1093 -80.6716 296° West  Level FlightAware Approximate
Wed 12:18:00 PM 33.1289 -80.7187 296° West  Level FlightAware Approximate
Wed 12:19:00 PM 33.1485 -80.7658 296° West  Level FlightAware Approximate
Wed 12:20:00 PM 33.1681 -80.8130 296° West  Level FlightAware Approximate
Wed 12:21:00 PM 33.1876 -80.8601 296° West  Level FlightAware Approximate
Wed 12:22:00 PM 33.2071 -80.9073 296° West  Level FlightAware Approximate
Wed 12:23:00 PM 33.2266 -80.9546 296° West  Level FlightAware Approximate
Wed 12:24:00 PM 33.2461 -81.0018 296° West  Level FlightAware Approximate
Wed 12:25:00 PM 33.2656 -81.0491 296° West  Level FlightAware Approximate
Wed 12:26:00 PM 33.2850 -81.0963 296° West  Level FlightAware Approximate
Wed 12:27:00 PM 33.3045 -81.1436 296° West  Level FlightAware Approximate
Wed 12:28:00 PM 33.3239 -81.1910 296° West  Level FlightAware Approximate
Wed 12:29:00 PM 33.3337 -81.2424 295° West  Level Estimated
Wed 12:30:00 PM 33.3530 -81.2897 296° West  Level FlightAware Approximate
Wed 12:31:00 PM 33.3724 -81.3371 296° West  Level FlightAware Approximate
Wed 12:32:00 PM 33.3917 -81.3845 296° West  Level FlightAware Approximate
Wed 12:33:00 PM 33.4110 -81.4320 296° West  Level FlightAware Approximate
Wed 12:34:00 PM 33.4303 -81.4794 296° West  Level FlightAware Approximate
Wed 12:35:00 PM 33.4496 -81.5269 296° West  Level FlightAware Approximate
Wed 12:36:00 PM 33.4688 -81.5744 296° West  Level FlightAware Approximate
Wed 12:37:00 PM 33.4880 -81.6219 296° West  Level FlightAware Approximate
Wed 12:38:00 PM 33.5073 -81.6694 296° West  Level FlightAware Approximate
Wed 12:39:00 PM 33.5265 -81.7170 296° West  Level FlightAware Approximate
Wed 12:40:00 PM 33.5456 -81.7646 296° West  Level FlightAware Approximate
Wed 12:41:00 PM 33.5648 -81.8122 296° West  Level FlightAware Approximate
Wed 12:42:00 PM 33.5839 -81.8598 296° West  Level FlightAware Approximate
Wed 12:43:00 PM 33.6021 -81.9050 296° West  Level FlightAware Approximate
Wed 12:44:00 PM 33.6202 -81.9503 296° West  Level FlightAware Approximate
Wed 12:45:00 PM 33.6384 -81.9956 296° West  Level FlightAware Approximate
Wed 12:46:00 PM 33.6565 -82.0408 296° West  Level FlightAware Approximate
Wed 12:47:00 PM 33.6745 -82.0862 296° West  Level FlightAware Approximate
Wed 12:48:00 PM 33.6926 -82.1315 296° West  Level FlightAware Approximate
Wed 12:49:00 PM 33.7058 -82.1789 284° West  Level FlightAware Approximate
Wed 12:50:00 PM 33.7156 -82.2278 284° West  Level FlightAware Approximate
Wed 12:51:00 PM 33.7255 -82.2767 284° West  Level FlightAware Approximate
Wed 12:52:00 PM 33.7352 -82.3256 284° West  Level FlightAware Approximate
Wed 12:53:00 PM 33.7450 -82.3745 284° West  Level FlightAware Approximate
Wed 12:54:00 PM 33.7548 -82.4234 283° West  Level FlightAware Approximate
Wed 12:55:00 PM 33.7645 -82.4724 283° West  Level FlightAware Approximate
Wed 12:56:00 PM 33.7760 -82.5207 287° West  Level FlightAware Approximate
Wed 12:57:00 PM 33.7881 -82.5689 287° West  Level FlightAware Approximate
Wed 12:58:00 PM 33.8001 -82.6171 279° West  Level FlightAware Approximate
Wed 12:59:00 PM 33.8063 -82.6669 279° West  Level FlightAware Approximate
Wed 01:00:00 PM 33.8125 -82.7167 279° West  Level FlightAware Approximate
Wed 01:01:00 PM 33.8203 -82.7661 285° West  Level FlightAware Approximate
Wed 01:02:00 PM 33.8311 -82.8147 285° West  Level FlightAware Approximate
Wed 01:02:41 PM 33.8000 -82.7167 289° West 156 180 8,100  Level Atlanta TRACON
Wed 01:03:00 PM 33.8419 -82.8633 285° West  Level FlightAware Approximate
Wed 01:03:41 PM 33.8000 -82.7667 270° West 157 181 8,100  Level Atlanta TRACON
Wed 01:04:00 PM 33.8530 -82.9119 287° West  Level FlightAware Approximate
Wed 01:04:47 PM 33.8167 -82.8167 292° West 160 184 8,100  Level Atlanta TRACON
Wed 01:05:00 PM 33.8650 -82.9601 287° West  Level FlightAware Approximate
Wed 01:05:47 PM 33.8333 -82.8833 287° West 163 188 8,100  Level Atlanta TRACON
Wed 01:06:00 PM 33.8784 -83.0078 289° West  Level FlightAware Approximate
Wed 01:06:47 PM 33.8500 -82.9333 292° West 162 186 8,100  Level Atlanta TRACON
Wed 01:07:00 PM 33.8921 -83.0555 289° West  Level FlightAware Approximate
Wed 01:07:41 PM 33.8667 -82.9667 301° West 160 184 8,100  Level Atlanta TRACON
Wed 01:08:41 PM 33.8667 -83.0333 270° West 159 183 8,100 -200 Level Atlanta TRACON
Wed 01:09:41 PM 33.8667 -83.0833 270° West 170 196 7,700 -476 Descending Atlanta TRACON
Wed 01:10:47 PM 33.8667 -83.1500 270° West 175 201 7,100 -571 Descending Atlanta TRACON
Wed 01:11:47 PM 33.8667 -83.2000 270° West 175 201 6,500 -500 Descending Atlanta TRACON
Wed 01:12:47 PM 33.8667 -83.2667 270° West 178 205 6,100 -200 Descending Atlanta TRACON
Wed 01:13:47 PM 33.8667 -83.3167 270° West 163 188 6,100  Level Atlanta TRACON
Wed 01:14:47 PM 33.8667 -83.3667 270° West 161 185 6,100  Level Atlanta TRACON
Wed 01:15:47 PM 33.8667 -83.4333 270° West 160 184 6,100  Level Atlanta TRACON
Wed 01:16:47 PM 33.8667 -83.4833 270° West 158 182 6,100  Level Atlanta TRACON
Wed 01:17:47 PM 33.8667 -83.5333 270° West 157 181 6,100  Level Atlanta TRACON
Wed 01:18:47 PM 33.8667 -83.5833 270° West 155 178 6,100 -95 Level Atlanta TRACON
Wed 01:19:53 PM 33.8667 -83.6333 270° West 159 183 5,900 -300 Descending Atlanta TRACON
Wed 01:20:47 PM 33.8667 -83.6833 270° West 173 199 5,500 -500 Descending Atlanta TRACON
Wed 01:21:41 PM 33.8833 -83.7500 287° West 180 207 5,000 -500 Descending Atlanta TRACON
Wed 01:22:47 PM 33.8833 -83.8000 270° West 177 204 4,500 -429 Descending Atlanta TRACON
Wed 01:23:47 PM 33.9000 -83.8667 287° West 165 190 4,100 -190 Descending Atlanta TRACON
Wed 01:24:53 PM 33.9000 -83.9167 270° West 149 171 4,100  Level Atlanta TRACON
Wed 01:26:53 PM 33.9167 -84.0167 281° West 150 173 4,100  Level Atlanta TRACON
Wed 01:27:53 PM 33.9333 -84.0667 292° West 144 166 4,100 -250 Level Atlanta TRACON
Wed 01:28:53 PM 33.9333 -84.1167 270° West 158 182 3,600 -500 Descending Atlanta TRACON
Wed 01:29:53 PM 33.9500 -84.1667 292° West 165 190 3,100 -316 Descending Atlanta TRACON
Wed 01:30:47 PM 33.9500 -84.2000 270° West 157 181 3,000 -211 Descending Atlanta TRACON
Wed 01:31:47 PM 33.9500 -84.2500 270° West 145 167 2,700 -500 Descending Atlanta TRACON
Wed 01:32:47 PM 33.9167 -84.2833 220° Southwest 125 144 2,000 -600 Descending Atlanta TRACON
Wed 01:33:47 PM 33.9000 -84.3000 220° Southwest 101 116 1,500 -500 Descending Atlanta TRACON
Wed 01:35:00 PM 33.8756 -84.3020 270° West  Level Estimated
Wed 01:42:00 PM 33.8756 -84.3020 270° West  Level Estimated

Login

Don't have an account? Register now (free) for customized features, flight alerts, and more!